Estación de Colina

Ultimos registro cada 15 minutos 95
Estación Fecha / Hora Temperatura Humedad Lluvia Velocidad Dirección Radiación Presion
95 Colina 07-05-2026 23:30 11,5 77 0 0 180 0 1022,4
94 Colina 07-05-2026 23:15 11,7 76 0 0 180 0 1022,6
93 Colina 07-05-2026 23:00 11,8 76 0 0 180 0 1022,9
92 Colina 07-05-2026 22:45 11,8 76 0 0 180 0 1023,2
91 Colina 07-05-2026 22:30 11,6 78 0 0 180 0 1023,2
90 Colina 07-05-2026 22:15 11,5 78 0 0 180 0 1023,2
89 Colina 07-05-2026 22:00 11,6 78 0 0 180 0 1023,2
88 Colina 07-05-2026 21:45 11,8 77 0 0 180 0 1023,1
87 Colina 07-05-2026 21:30 11,6 77 0 0 180 0 1022,9
86 Colina 07-05-2026 21:15 11,4 79 0 0 180 0 1022,9
85 Colina 07-05-2026 21:00 11,4 78 0 0 180 0 1022,8
84 Colina 07-05-2026 20:45 11,6 77 0 0 180 0 1023,1
83 Colina 07-05-2026 20:30 11,9 77 0 0 180 0 1022,7
82 Colina 07-05-2026 20:15 12,2 76 0 0 180 0 1022,7
81 Colina 07-05-2026 20:00 12,2 76 0 0 180 0 1022,8
80 Colina 07-05-2026 19:45 12,1 76 0 0 180 0 1022,7
79 Colina 07-05-2026 19:30 12,2 75 0 0 180 0 1023,1
78 Colina 07-05-2026 19:15 12,5 73 0 0 180 0 1023,2
77 Colina 07-05-2026 19:00 12,7 72 0 0,4 180 0 1022,6
76 Colina 07-05-2026 18:45 13,2 71 0 0 180 0 1022,8
75 Colina 07-05-2026 18:30 13,3 70 0 0,4 180 0 1022,7
74 Colina 07-05-2026 18:15 13,4 65 0 0 180 0 1022,5
73 Colina 07-05-2026 18:00 14,7 60 0 0 180 0 1022,2
72 Colina 07-05-2026 17:45 15,4 58 0 0,4 251 12 1022,3
71 Colina 07-05-2026 17:30 16,3 57 0 1,3 180 25 1022
70 Colina 07-05-2026 17:15 16,9 55 0 1,3 180 62 1021,9
69 Colina 07-05-2026 17:00 17,2 55 0 0,4 180 91 1021,9
68 Colina 07-05-2026 16:45 17,6 56 0 1,3 180 49 1021,7
67 Colina 07-05-2026 16:30 17,6 56 0 0,4 180 49 1021,7
66 Colina 07-05-2026 16:15 17,8 56 0 1,3 180 54 1021,6
65 Colina 07-05-2026 16:00 18,1 54 0 1,3 180 60 1021,8
64 Colina 07-05-2026 15:45 17,9 57 0 0,4 180 84 1021,5
63 Colina 07-05-2026 15:30 18,3 56 0 1,3 180 468 1021,5
62 Colina 07-05-2026 15:15 17,8 55 0 2,2 180 237 1021,5
61 Colina 07-05-2026 15:00 18,2 56 0 0,4 180 563 1021,3
60 Colina 07-05-2026 14:45 18 58 0 1,3 180 603 1021,3
59 Colina 07-05-2026 14:30 17,4 60 0 0,9 180 647 1021,5
58 Colina 07-05-2026 14:15 17 60 0 0,4 180 694 1021,4
57 Colina 07-05-2026 14:00 17,7 60 0 1,3 180 719 1021,6
56 Colina 07-05-2026 13:45 17,1 62 0 0,9 180 761 1022,3
55 Colina 07-05-2026 13:30 16,9 61 0 0,9 180 772 1022,6
54 Colina 07-05-2026 13:15 16,5 62 0 0,4 180 803 1022,8
53 Colina 07-05-2026 13:00 16,9 63 0 0,4 180 831 1023,1
52 Colina 07-05-2026 12:45 16,6 64 0 0,9 180 875 1023,2
51 Colina 07-05-2026 12:30 15,9 63 0 0,9 180 921 1023,3
50 Colina 07-05-2026 12:15 15,5 62 0 0 180 856 1023,6
49 Colina 07-05-2026 12:00 14,9 68 0 0 180 844 1023,8
48 Colina 07-05-2026 11:45 14,4 71 0 0 180 127 1023,6
47 Colina 07-05-2026 11:30 14,8 73 0 0 180 895 1023,8
46 Colina 07-05-2026 11:15 14,4 73 0 0 180 821 1024
45 Colina 07-05-2026 11:00 14,1 75 0 0 180 791 1024,2
44 Colina 07-05-2026 10:45 13,2 79 0 0 180 403 1024,5
43 Colina 07-05-2026 10:30 13,4 82 0 0 180 830 1024,6
42 Colina 07-05-2026 10:15 12,3 84 0 0 254 381 1024,6
41 Colina 07-05-2026 10:00 11,6 86 0 0 180 320 1024,5
40 Colina 07-05-2026 09:45 11,4 88 0 0 180 211 1024,5
39 Colina 07-05-2026 09:30 11,1 89 0 0,4 180 214 1024,3
38 Colina 07-05-2026 09:15 10,7 89 0 0 180 193 1024,4
37 Colina 07-05-2026 09:00 10,4 90 0 0 180 183 1024,2
36 Colina 07-05-2026 08:45 10,3 91 0 0 256 123 1024,2
35 Colina 07-05-2026 08:30 10,1 91 0 0 256 79 1024
34 Colina 07-05-2026 08:15 9,9 91 0 0 255 54 1024
33 Colina 07-05-2026 08:00 9,8 91 0 0 260 44 1023,7
32 Colina 07-05-2026 07:45 9,8 91 0 0 260 25 1023,5
31 Colina 07-05-2026 07:30 9,8 91 0 0 260 5 1023,3
30 Colina 07-05-2026 07:15 9,8 91 0 0 260 0 1023,3
29 Colina 07-05-2026 07:00 9,7 91 0 0 260 0 1023,1
28 Colina 07-05-2026 06:45 9,7 91 0 0 260 0 1022,9
27 Colina 07-05-2026 06:30 9,6 91 0 0 260 0 1022,7
26 Colina 07-05-2026 06:15 9,6 91 0 0 260 0 1022,6
25 Colina 07-05-2026 06:00 9,7 91 0 0 260 0 1022,5
24 Colina 07-05-2026 05:45 9,8 91 0 0 260 0 1022,4
23 Colina 07-05-2026 05:30 9,7 91 0 0 260 0 1022,3
22 Colina 07-05-2026 05:15 9,7 91 0 0 260 0 1022
21 Colina 07-05-2026 05:00 9,7 91 0 0 260 0 1021,8
20 Colina 07-05-2026 04:45 9,8 91 0 0 260 0 1021,7
19 Colina 07-05-2026 04:30 9,8 91 0 0 260 0 1021,8
18 Colina 07-05-2026 04:15 9,8 91 0 0 260 0 1021,9
17 Colina 07-05-2026 04:00 9,7 91 0 0 260 0 1021,7
16 Colina 07-05-2026 03:45 9,6 91 0 0 260 0 1021,8
15 Colina 07-05-2026 03:30 9,3 91 0 0 260 0 1021,7
14 Colina 07-05-2026 03:15 9,1 90 0 0 260 0 1021,7
13 Colina 07-05-2026 03:00 9 90 0 0 260 0 1021,7
12 Colina 07-05-2026 02:45 8,9 90 0,2 0 260 0 1021,6
11 Colina 07-05-2026 02:30 8,8 90 0 0 260 0 1021,5
10 Colina 07-05-2026 02:15 8,6 89 0 0 260 0 1021,5
9 Colina 07-05-2026 02:00 8,7 87 0 0,4 260 0 1021,6
8 Colina 07-05-2026 01:45 9,3 87 0 0 260 0 1021,4
7 Colina 07-05-2026 01:30 9,7 86 0 0 260 0 1021
6 Colina 07-05-2026 01:15 10,4 87 0 0 180 0 1021
5 Colina 07-05-2026 01:00 11 87 0 0 180 0 1021,1
4 Colina 07-05-2026 00:45 11,3 88 0 0 180 0 1021
3 Colina 07-05-2026 00:30 11,4 92 0 0 180 0 1021,2
2 Colina 07-05-2026 00:15 11,5 89 0 0 180 0 1021,2
1 Colina 07-05-2026 00:00 11,6 89 0 0 180 0 1021,1